createdAt,value
2019-01-05T00:01:07.302Z,93.10
2019-01-05T00:04:00.897Z,93.20
2019-01-05T00:06:43.556Z,93.50
2019-01-05T00:09:34.362Z,93.80
2019-01-05T00:12:37.046Z,93.90
2019-01-05T00:15:23.601Z,94.10
2019-01-05T00:18:10.241Z,94.10
2019-01-05T00:20:56.916Z,94.20
2019-01-05T00:23:44.093Z,94.20
2019-01-05T00:26:29.466Z,94.40
2019-01-05T00:29:16.229Z,94.70
2019-01-05T00:32:51.522Z,94.90
2019-01-05T00:35:49.740Z,94.60
2019-01-05T00:38:36.701Z,94.60
2019-01-05T00:41:24.212Z,94.70
2019-01-05T00:44:10.871Z,94.90
2019-01-05T00:46:59.185Z,95.20
2019-01-05T00:49:46.881Z,95.20
2019-01-05T00:52:44.339Z,95.30
2019-01-05T00:55:34.083Z,95.60
2019-01-05T00:58:26.396Z,95.10
2019-01-05T01:01:12.770Z,95.20
2019-01-05T01:04:00.514Z,95.20
2019-01-05T01:06:48.159Z,95.10
2019-01-05T01:09:55.288Z,95.20
2019-01-05T01:12:55.377Z,95.00
2019-01-05T01:15:37.645Z,94.90
2019-01-05T01:18:22.358Z,94.80
2019-01-05T01:21:08.937Z,94.60
2019-01-05T01:24:05.700Z,94.50
2019-01-05T01:26:43.445Z,94.60
2019-01-05T01:29:40.688Z,94.50
2019-01-05T01:32:22.288Z,94.50
2019-01-05T01:35:19.015Z,94.70
2019-01-05T01:38:47.034Z,94.60
2019-01-05T01:41:47.106Z,94.40
2019-01-05T01:44:33.964Z,94.30
2019-01-05T01:47:24.033Z,94.40
2019-01-05T01:50:29.893Z,94.40
2019-01-05T01:53:10.512Z,94.30
2019-01-05T01:55:58.187Z,94.10
2019-01-05T01:58:45.311Z,94.30
2019-01-05T02:01:35.932Z,94.10
2019-01-05T02:04:22.298Z,94.10
2019-01-05T02:07:08.670Z,94.40
2019-01-05T02:09:56.343Z,94.10
2019-01-05T02:12:39.831Z,94.10
2019-01-05T02:15:33.085Z,94.10
2019-01-05T02:18:35.093Z,94.10
2019-01-05T02:22:06.848Z,94.40
2019-01-05T02:25:15.934Z,94.20
2019-01-05T02:28:50.536Z,94.40
2019-01-05T02:32:26.859Z,94.30
2019-01-05T02:35:24.437Z,94.30
2019-01-05T02:38:54.943Z,94.50
2019-01-05T02:42:19.177Z,94.60
2019-01-05T02:45:57.149Z,94.70
2019-01-05T02:49:32.731Z,94.90
2019-01-05T02:53:03.986Z,95.20
2019-01-05T02:56:32.524Z,95.30
2019-01-05T02:59:48.665Z,95.50
2019-01-05T03:03:15.874Z,95.50
2019-01-05T03:06:40.833Z,95.60
2019-01-05T03:10:18.349Z,95.70
2019-01-05T03:13:47.942Z,95.70
2019-01-05T03:17:10.584Z,95.60
2019-01-05T03:20:18.396Z,95.70
2019-01-05T03:23:39.713Z,95.80
2019-01-05T03:26:49.656Z,95.90
2019-01-05T03:30:32.759Z,95.80
2019-01-05T03:33:49.967Z,95.90
2019-01-05T03:37:38.703Z,96.00
2019-01-05T03:40:44.656Z,96.20
2019-01-05T03:44:07.977Z,96.10
2019-01-05T03:47:21.816Z,96.10
2019-01-05T03:50:41.258Z,96.10
2019-01-05T03:54:47.212Z,96.60
2019-01-05T03:58:13.633Z,96.20
2019-01-05T04:01:27.604Z,96.40
2019-01-05T04:04:30.577Z,96.50
2019-01-05T04:07:52.727Z,96.60
2019-01-05T04:11:19.529Z,96.50
2019-01-05T04:14:26.560Z,96.70
2019-01-05T04:17:49.000Z,96.40
2019-01-05T04:21:04.473Z,96.10
2019-01-05T04:24:22.901Z,96.10
2019-01-05T04:27:46.317Z,96.20
2019-01-05T04:31:22.416Z,95.80
2019-01-05T04:35:05.163Z,95.90
2019-01-05T04:38:40.549Z,95.80
2019-01-05T04:42:13.653Z,95.70
2019-01-05T04:45:34.591Z,95.50
2019-01-05T04:48:59.447Z,95.70
2019-01-05T04:52:27.028Z,95.50
2019-01-05T04:55:49.274Z,95.60
2019-01-05T04:58:59.084Z,95.20
2019-01-05T05:02:23.330Z,95.20
2019-01-05T05:05:53.901Z,95.10
2019-01-05T05:09:05.554Z,95.40
2019-01-05T05:12:40.481Z,95.10
2019-01-05T05:16:03.981Z,94.80
2019-01-05T05:19:35.116Z,94.80
2019-01-05T05:23:14.661Z,94.70
2019-01-05T05:26:42.752Z,94.70
2019-01-05T05:30:27.501Z,94.90
2019-01-05T05:33:39.423Z,94.60
2019-01-05T05:37:10.890Z,94.70
2019-01-05T05:40:47.656Z,94.50
2019-01-05T05:44:09.198Z,94.90
2019-01-05T05:47:33.164Z,94.50
2019-01-05T05:51:13.142Z,94.30
2019-01-05T05:54:50.341Z,94.40
2019-01-05T05:57:55.924Z,94.50
2019-01-05T06:01:37.047Z,94.40
2019-01-05T06:05:08.880Z,94.40
2019-01-05T06:08:37.493Z,94.40
2019-01-05T06:11:50.696Z,94.80
2019-01-05T06:15:44.072Z,94.90
2019-01-05T06:19:17.710Z,95.10
2019-01-05T06:23:01.587Z,95.00
2019-01-05T06:26:24.903Z,95.20
2019-01-05T06:30:04.328Z,95.30
2019-01-05T06:33:40.225Z,95.20
2019-01-05T06:36:59.021Z,95.30
2019-01-05T06:40:35.189Z,95.10
2019-01-05T06:44:25.476Z,95.40
2019-01-05T06:47:44.791Z,95.20
2019-01-05T06:50:55.144Z,95.40
2019-01-05T06:54:28.964Z,95.40
2019-01-05T06:58:01.710Z,95.10
2019-01-05T07:01:36.240Z,95.30
2019-01-05T07:04:50.600Z,95.30
2019-01-05T07:07:54.891Z,95.30
2019-01-05T07:11:15.943Z,95.50
2019-01-05T07:14:55.109Z,95.40
2019-01-05T07:18:28.614Z,95.40
2019-01-05T07:22:02.392Z,95.40
2019-01-05T07:25:26.637Z,95.50
2019-01-05T07:28:50.776Z,95.40
2019-01-05T07:32:20.860Z,95.20
2019-01-05T07:35:30.885Z,95.20
2019-01-05T07:39:04.100Z,95.20
2019-01-05T07:43:02.476Z,95.10
2019-01-05T07:46:35.149Z,95.00
2019-01-05T07:50:14.436Z,95.10
2019-01-05T07:53:50.532Z,94.90
2019-01-05T07:57:18.007Z,94.90
2019-01-05T08:00:46.711Z,94.90
2019-01-05T08:04:10.396Z,94.70
2019-01-05T08:07:21.454Z,94.80
2019-01-05T08:10:44.680Z,95.00
2019-01-05T08:13:57.838Z,94.60
2019-01-05T08:17:29.852Z,95.00
2019-01-05T08:20:59.956Z,95.10
2019-01-05T08:24:49.699Z,95.40
2019-01-05T08:28:15.785Z,95.30
2019-01-05T08:31:59.597Z,95.40
2019-01-05T08:35:36.203Z,95.30
2019-01-05T08:39:05.755Z,95.30
2019-01-05T08:42:27.645Z,95.30
2019-01-05T08:45:48.452Z,95.30
2019-01-05T08:49:10.858Z,95.40
2019-01-05T08:52:22.380Z,95.20
2019-01-05T08:55:40.512Z,95.20
2019-01-05T08:59:15.534Z,95.00
2019-01-05T09:02:41.959Z,95.00
2019-01-05T09:06:26.512Z,94.60
2019-01-05T09:09:48.403Z,94.70
2019-01-05T09:13:17.925Z,94.40
2019-01-05T09:16:58.191Z,94.10
2019-01-05T09:20:33.772Z,93.90
2019-01-05T09:23:59.702Z,94.10
2019-01-05T09:27:29.980Z,93.90
2019-01-05T09:30:56.408Z,93.50
2019-01-05T09:34:24.954Z,93.70
2019-01-05T09:37:50.103Z,93.20
2019-01-05T09:41:14.937Z,93.30
2019-01-05T09:44:32.981Z,93.30
2019-01-05T09:48:02.753Z,93.30
2019-01-05T09:51:05.820Z,93.50
2019-01-05T09:54:33.604Z,93.40
2019-01-05T09:57:56.954Z,93.30
2019-01-05T10:01:19.707Z,93.50
2019-01-05T10:04:51.326Z,93.40
2019-01-05T10:08:24.789Z,93.40
2019-01-05T10:11:47.464Z,93.50
2019-01-05T10:15:22.459Z,93.80
2019-01-05T10:18:46.276Z,93.80
2019-01-05T10:22:22.795Z,93.90
2019-01-05T10:25:49.802Z,94.00
2019-01-05T10:29:39.467Z,94.10
2019-01-05T10:33:03.654Z,94.20
2019-01-05T10:36:25.438Z,94.10
2019-01-05T10:40:23.459Z,94.10
2019-01-05T10:43:38.524Z,94.10
2019-01-05T10:47:24.139Z,94.00
2019-01-05T10:50:36.498Z,93.90
2019-01-05T10:54:03.112Z,93.50
2019-01-05T10:57:32.791Z,93.70
2019-01-05T11:00:30.743Z,93.70
2019-01-05T11:03:41.225Z,93.40
2019-01-05T11:06:58.904Z,93.00
2019-01-05T11:10:37.021Z,93.10
2019-01-05T11:14:04.942Z,93.00
2019-01-05T11:17:09.039Z,92.80
2019-01-05T11:20:59.682Z,92.60
2019-01-05T11:24:19.364Z,92.70
2019-01-05T11:28:02.832Z,92.80
2019-01-05T11:31:35.610Z,93.00
2019-01-05T11:35:01.040Z,93.00
2019-01-05T11:38:05.696Z,93.00
2019-01-05T11:41:31.107Z,92.90
2019-01-05T11:45:12.805Z,93.00
2019-01-05T11:48:14.618Z,92.80
2019-01-05T11:52:09.750Z,92.70
2019-01-05T11:55:44.963Z,93.00
2019-01-05T11:59:12.408Z,93.10
2019-01-05T12:03:04.507Z,93.10
2019-01-05T12:06:32.291Z,93.00
2019-01-05T12:10:24.999Z,92.90
2019-01-05T12:14:00.802Z,92.90
2019-01-05T12:17:16.256Z,93.00
2019-01-05T12:20:33.990Z,93.30
2019-01-05T12:24:06.122Z,92.70
2019-01-05T12:27:34.758Z,93.00
2019-01-05T12:31:08.268Z,92.90
2019-01-05T12:34:20.632Z,93.10
2019-01-05T12:37:53.296Z,93.00
2019-01-05T12:41:18.477Z,92.80
2019-01-05T12:44:46.307Z,92.70
2019-01-05T12:48:08.983Z,92.80
2019-01-05T12:51:48.590Z,93.30
2019-01-05T12:55:13.681Z,92.90
2019-01-05T12:58:55.467Z,92.60
2019-01-05T13:02:27.175Z,92.80
2019-01-05T13:05:52.471Z,92.80
2019-01-05T13:10:00.634Z,92.80
2019-01-05T13:13:17.529Z,92.70
2019-01-05T13:16:54.940Z,92.70
2019-01-05T13:20:27.033Z,92.30
2019-01-05T13:23:51.411Z,92.50
2019-01-05T13:27:29.275Z,92.30
2019-01-05T13:30:52.109Z,92.20
2019-01-05T13:34:12.498Z,92.20
2019-01-05T13:37:35.607Z,92.40
2019-01-05T13:41:15.358Z,92.40
2019-01-05T13:44:29.331Z,92.30
2019-01-05T13:47:51.005Z,92.40
2019-01-05T13:51:24.016Z,92.30
2019-01-05T13:54:13.576Z,92.20
2019-01-05T13:57:11.339Z,91.90
2019-01-05T13:59:49.470Z,92.00
2019-01-05T14:02:36.089Z,92.10
2019-01-05T14:05:22.933Z,92.00
2019-01-05T14:08:09.302Z,92.20
2019-01-05T14:10:56.037Z,92.00
2019-01-05T14:13:55.493Z,92.30
2019-01-05T14:16:49.346Z,92.30
2019-01-05T14:19:36.997Z,92.20
2019-01-05T14:22:30.517Z,92.40
2019-01-05T14:25:18.171Z,92.30
2019-01-05T14:27:59.983Z,92.20
2019-01-05T14:30:46.472Z,92.40
2019-01-05T14:33:37.948Z,92.50
2019-01-05T14:36:23.288Z,92.30
2019-01-05T14:39:09.934Z,92.10
2019-01-05T14:41:56.321Z,92.50
2019-01-05T14:44:57.253Z,92.40
2019-01-05T14:47:51.323Z,92.80
2019-01-05T14:50:44.048Z,92.50
2019-01-05T14:53:34.913Z,92.60
2019-01-05T14:56:21.758Z,92.90
2019-01-05T14:59:15.292Z,93.00
2019-01-05T15:01:58.590Z,92.70
2019-01-05T15:04:45.772Z,92.60
2019-01-05T15:07:33.440Z,92.50
2019-01-05T15:10:18.527Z,92.50
2019-01-05T15:13:07.094Z,92.50
2019-01-05T15:16:08.124Z,92.70
2019-01-05T15:19:14.198Z,92.50
2019-01-05T15:22:08.060Z,92.60
2019-01-05T15:24:55.689Z,92.40
2019-01-05T15:27:43.361Z,92.50
2019-01-05T15:31:01.146Z,92.40
2019-01-05T15:34:04.057Z,92.30
2019-01-05T15:37:00.668Z,92.40
2019-01-05T15:39:47.059Z,92.40
2019-01-05T15:42:43.686Z,92.30
2019-01-05T15:45:46.016Z,92.10
2019-01-05T15:48:32.371Z,92.10
2019-01-05T15:51:14.224Z,91.90
2019-01-05T15:53:55.997Z,92.00
2019-01-05T15:56:42.712Z,92.00
2019-01-05T15:59:36.238Z,92.20
2019-01-05T16:02:38.856Z,92.00
2019-01-05T16:05:29.578Z,92.30
2019-01-05T16:08:16.094Z,92.20
2019-01-05T16:11:06.658Z,92.10
2019-01-05T16:14:07.888Z,92.00
2019-01-05T16:16:58.413Z,91.90
2019-01-05T16:20:01.170Z,92.00
2019-01-05T16:22:47.797Z,92.10
2019-01-05T16:25:34.370Z,92.10
2019-01-05T16:28:40.382Z,92.10
2019-01-05T16:31:26.780Z,92.20
2019-01-05T16:34:14.560Z,92.10
2019-01-05T16:37:05.253Z,92.10
2019-01-05T16:39:55.999Z,92.00
2019-01-05T16:42:47.423Z,92.00
2019-01-05T16:45:25.721Z,91.80
2019-01-05T16:48:16.872Z,91.90
2019-01-05T16:51:05.199Z,92.00
2019-01-05T16:53:51.681Z,91.90
2019-01-05T16:56:38.020Z,91.80
2019-01-05T16:59:24.548Z,91.70
2019-01-05T17:02:11.077Z,91.70
2019-01-05T17:05:02.634Z,91.70
2019-01-05T17:07:48.933Z,91.40
2019-01-05T17:10:40.764Z,91.50
2019-01-05T17:13:28.420Z,91.40
2019-01-05T17:16:09.178Z,91.50
2019-01-05T17:19:08.946Z,91.50
2019-01-05T17:21:52.650Z,91.40
2019-01-05T17:24:39.067Z,91.10
2019-01-05T17:27:26.559Z,91.50
2019-01-05T17:30:06.826Z,91.40
2019-01-05T17:32:55.131Z,91.20
2019-01-05T17:35:51.793Z,91.00
2019-01-05T17:38:33.604Z,91.10
2019-01-05T17:41:21.263Z,90.90
2019-01-05T17:44:11.835Z,91.30
2019-01-05T17:46:58.198Z,91.20
2019-01-05T17:50:04.027Z,91.30
2019-01-05T17:52:50.193Z,91.30
2019-01-05T17:55:55.972Z,91.50
2019-01-05T17:58:54.428Z,91.30
2019-01-05T18:02:00.214Z,91.40
2019-01-05T18:04:44.342Z,91.30
2019-01-05T18:07:41.287Z,91.40
2019-01-05T18:10:27.535Z,91.40
2019-01-05T18:13:15.231Z,91.30
2019-01-05T18:16:02.887Z,91.20
2019-01-05T18:18:43.520Z,91.10
2019-01-05T18:21:28.061Z,90.80
2019-01-05T18:24:15.066Z,91.00
2019-01-05T18:26:57.413Z,91.10
2019-01-05T18:29:44.178Z,91.00
2019-01-05T18:32:37.791Z,90.90
2019-01-05T18:35:21.653Z,91.00
2019-01-05T18:38:12.162Z,90.80
2019-01-05T18:40:58.699Z,90.80
2019-01-05T18:43:48.261Z,91.00
2019-01-05T18:46:54.280Z,91.00
2019-01-05T18:49:32.231Z,91.10
2019-01-05T18:52:25.040Z,90.80
2019-01-05T18:55:06.721Z,90.80
2019-01-05T18:58:09.218Z,90.90
2019-01-05T19:01:18.477Z,91.00
2019-01-05T19:04:06.527Z,91.00
2019-01-05T19:06:55.583Z,90.90
2019-01-05T19:09:58.843Z,90.70
2019-01-05T19:12:46.045Z,90.80
2019-01-05T19:15:36.792Z,90.50
2019-01-05T19:18:23.138Z,90.70
2019-01-05T19:21:07.634Z,90.60
2019-01-05T19:24:01.687Z,90.70
2019-01-05T19:26:54.976Z,90.70
2019-01-05T19:30:07.635Z,90.90
2019-01-05T19:33:10.177Z,90.80
2019-01-05T19:36:04.566Z,90.90
2019-01-05T19:39:14.276Z,90.90
2019-01-05T19:42:08.640Z,90.70
2019-01-05T19:44:59.977Z,90.80
2019-01-05T19:47:46.768Z,90.90
2019-01-05T19:50:28.176Z,91.00
2019-01-05T19:53:14.594Z,91.00
2019-01-05T19:56:01.229Z,91.00
2019-01-05T19:58:47.835Z,91.00
2019-01-05T20:01:31.263Z,91.10
2019-01-05T20:04:26.016Z,91.10
2019-01-05T20:07:12.457Z,91.00
2019-01-05T20:10:06.259Z,91.00
2019-01-05T20:13:01.010Z,91.10
2019-01-05T20:15:48.941Z,91.00
2019-01-05T20:18:42.655Z,91.00
2019-01-05T20:21:26.065Z,91.20
2019-01-05T20:24:28.901Z,91.30
2019-01-05T20:27:25.551Z,91.20
2019-01-05T20:30:12.236Z,91.30
2019-01-05T20:32:59.842Z,91.40
2019-01-05T20:35:46.120Z,91.30
2019-01-05T20:38:37.212Z,91.40
2019-01-05T20:41:23.704Z,91.40
2019-01-05T20:44:17.260Z,91.40
2019-01-05T20:47:06.380Z,91.40
2019-01-05T20:50:09.136Z,91.50
2019-01-05T20:53:02.944Z,91.40
2019-01-05T20:55:59.675Z,91.40
2019-01-05T20:59:01.311Z,91.40
2019-01-05T21:01:48.816Z,91.40
2019-01-05T21:04:42.483Z,91.40
2019-01-05T21:07:29.033Z,91.50
2019-01-05T21:10:15.387Z,91.40
2019-01-05T21:13:11.390Z,91.50
2019-01-05T21:15:57.692Z,91.40
2019-01-05T21:18:48.984Z,91.30
2019-01-05T21:21:35.829Z,91.60
2019-01-05T21:24:26.568Z,91.50
2019-01-05T21:27:14.224Z,91.60
2019-01-05T21:30:05.640Z,91.60
2019-01-05T21:32:52.064Z,91.60
2019-01-05T21:35:42.503Z,91.60
2019-01-05T21:38:38.079Z,91.60
2019-01-05T21:41:28.785Z,91.50
2019-01-05T21:44:15.308Z,91.50
2019-01-05T21:47:02.968Z,91.60
2019-01-05T21:50:05.604Z,91.60
2019-01-05T21:52:48.908Z,91.50
2019-01-05T21:55:39.532Z,91.50
2019-01-05T21:58:18.860Z,91.60
2019-01-05T22:01:05.416Z,91.50
2019-01-05T22:03:56.128Z,91.60
2019-01-05T22:06:56.104Z,91.80
2019-01-05T22:09:45.066Z,91.70
2019-01-05T22:12:31.711Z,91.90
2019-01-05T22:15:23.547Z,91.90
2019-01-05T22:18:16.228Z,91.90
2019-01-05T22:21:09.291Z,92.00
2019-01-05T22:23:55.876Z,92.00
2019-01-05T22:26:43.132Z,92.10
2019-01-05T22:29:39.885Z,92.10
2019-01-05T22:32:26.222Z,92.10
2019-01-05T22:35:12.356Z,92.00
2019-01-05T22:38:15.129Z,92.00
2019-01-05T22:41:03.089Z,92.20
2019-01-05T22:43:59.879Z,92.20
2019-01-05T22:47:06.173Z,92.10
2019-01-05T22:49:52.784Z,92.30
2019-01-05T22:52:47.807Z,92.20
2019-01-05T22:55:34.245Z,92.20
2019-01-05T22:58:37.044Z,92.10
2019-01-05T23:01:24.712Z,92.20
2019-01-05T23:04:01.983Z,92.20
2019-01-05T23:06:43.304Z,92.20
2019-01-05T23:09:23.457Z,92.20
2019-01-05T23:12:14.459Z,92.30
2019-01-05T23:14:59.527Z,92.20
2019-01-05T23:17:44.314Z,92.30
2019-01-05T23:20:31.995Z,92.40
2019-01-05T23:23:32.252Z,92.40
2019-01-05T23:26:29.162Z,92.30
2019-01-05T23:29:22.357Z,92.30
2019-01-05T23:32:17.308Z,92.40
2019-01-05T23:35:14.349Z,92.30
2019-01-05T23:38:02.324Z,92.30
2019-01-05T23:40:50.130Z,92.50
2019-01-05T23:43:40.134Z,92.50
2019-01-05T23:46:28.101Z,92.50
2019-01-05T23:49:17.749Z,92.50
2019-01-05T23:52:04.365Z,92.60
2019-01-05T23:55:04.591Z,92.50
2019-01-05T23:57:55.092Z,92.50
